Hannover, Germany

9:29 AM CEST on August 28, 2015 (GMT +0200)
Garten im Dorf | | Change Station
CLOSE
Current Station
Personal Weather Station
Location: Langenhagen, NIEDERSACHSEN
Elevation: 180 ft
Nearby Weather Stations

Elev 180 ft 52.45 °N, 9.65 °E | Updated 4 seconds ago

Mostly Cloudy
Mostly Cloudy
57.9 °F
Feels Like 57.9 °F
N
0.0
Wind Variable Wind from SSW
Gusts 0.0 mph

Today
High -- | Low -- °F
--% Chance of Precip.
Yesterday
High -- | Low -- °F
Precip. -- in
6:24 AM 8:19 PM
Waxing Gibbous, 97% visible
Pressure 30.01 in
Visibility 6.2 miles
Clouds Scattered Clouds 1000 ft
Mostly Cloudy 1300 ft
Dew Point 55 °F
Humidity 91%
Rainfall 0.15 in
Snow Depth Not available.
UV 1.0 out of 12
Pollen Not available.
Air Quality Not available.
Flu Activity Not available.
METAR EDDV 280720Z 25006KT 220V290 9999 SCT010 BKN013 14/13 Q1016 BECMG BKN015
Pressure 30.01 in
Visibility 6.2 miles
Clouds Scattered Clouds 1000 ft
Mostly Cloudy 1300 ft
Dew Point 55 °F
Humidity 91%
Rainfall 0.15 in
Snow Depth Not available.
UV 1.0 out of 12
Pollen Not available.
Air Quality Not available.
Flu Activity Not available.
METAR EDDV 280720Z 25006KT 220V290 9999 SCT010 BKN013 14/13 Q1016 BECMG BKN015

10-Day Weather Forecast

×

Almanac

Astronomy

Aug. 28, 2015 Rise Set
Actual Time
Civil Twilight
Nautical Twilight
Astronomical Twilight
Moon
Length of Visible Light
Length of Day
Tomorrow will be .
, % of the Moon is Illuminated

Today's Extremes

Country Highs Country Lows

Community

WunderPhotos

Upload Photos

1,850,344 photos uploaded!

WunderBlogs® & News

Nearby

Air Quality

  Air Quality AQ Index Pollutant
Not available.

Snow Depth

Station Depth Elevation

Earthquake Activity

City Distance Mag. Time & Date
Minimum magnitude displayed is 2.5.

Coastal Water Temperatures

Place Temperature

Stations

Nearby Weather Stations

Station Location Temp. Windchill Dew Point Humidity Wind Precip. Elev Updated Type